Time;durP1;ratioP1;P1;durP2;ratioP2;P2;SDS_P1;SDS_P2;PMS_P1;PMS_P2;Temp;Humidity;BMP_temperature;BMP_pressure;BME280_temperature;BME280_humidity;BME280_pressure;Samples;Min_cycle;Max_cycle;Signal;HPM_P1;HPM_P2
2023/11/12 00:01:30;;;;;;;18.83;7.80;;;3.40;99.90;;;;;;5033392;28;20116;-62
2023/11/12 00:03:56;;;;;;;18.73;7.57;;;3.50;99.90;;;;;;5038192;28;20375;-63
2023/11/12 00:06:22;;;;;;;15.60;8.75;;;3.60;99.90;;;;;;5032046;28;20026;-62
2023/11/12 00:08:47;;;;;;;17.58;9.63;;;3.50;99.90;;;;;;5036702;28;20094;-62
2023/11/12 00:11:14;;;;;;;13.20;7.60;;;3.40;99.90;;;;;;5032293;28;20027;-62
2023/11/12 00:13:40;;;;;;;13.48;7.50;;;3.40;99.90;;;;;;5038889;28;21424;-63
2023/11/12 00:16:06;;;;;;;14.48;7.50;;;3.40;99.90;;;;;;5037020;28;20025;-61
2023/11/12 00:18:31;;;;;;;17.65;7.97;;;3.40;99.90;;;;;;5034804;28;20025;-62
2023/11/12 00:20:57;;;;;;;14.32;7.13;;;3.30;99.90;;;;;;5034920;28;20078;-63
2023/11/12 00:23:24;;;;;;;12.32;7.15;;;3.20;99.90;;;;;;5032329;28;20029;-61
2023/11/12 00:25:50;;;;;;;14.13;7.70;;;3.20;99.90;;;;;;5037912;28;20116;-62
2023/11/12 00:28:16;;;;;;;14.30;7.85;;;3.30;99.90;;;;;;5035795;28;20017;-64
2023/11/12 00:30:41;;;;;;;13.75;7.18;;;3.20;99.90;;;;;;5035033;28;20940;-64
2023/11/12 00:33:08;;;;;;;11.73;6.80;;;3.10;99.90;;;;;;5036205;28;20029;-61
2023/11/12 00:35:34;;;;;;;13.82;7.75;;;3.10;99.90;;;;;;5036436;28;20465;-62
2023/11/12 00:38:00;;;;;;;16.40;6.90;;;3.00;99.90;;;;;;5032733;28;20037;-63
2023/11/12 00:40:27;;;;;;;17.95;7.25;;;3.10;99.90;;;;;;5031582;28;20021;-63
2023/11/12 00:42:56;;;;;;;23.40;7.63;;;3.20;99.90;;;;;;5040005;28;20033;-62
2023/11/12 00:45:24;;;;;;;15.90;7.30;;;3.30;99.90;;;;;;5037028;28;20051;-62
2023/11/12 00:47:49;;;;;;;22.98;7.93;;;3.30;99.90;;;;;;5039762;28;20025;-63
2023/11/12 00:50:16;;;;;;;10.65;6.15;;;3.30;99.90;;;;;;5036573;28;20360;-63
2023/11/12 00:52:42;;;;;;;14.63;7.35;;;3.30;99.90;;;;;;5036921;28;20037;-62
2023/11/12 00:55:07;;;;;;;20.10;6.80;;;3.30;99.90;;;;;;5039277;28;20032;-62
2023/11/12 00:57:34;;;;;;;10.85;6.43;;;3.30;99.90;;;;;;5032447;28;20379;-63
2023/11/12 01:00:00;;;;;;;16.77;7.05;;;3.20;99.90;;;;;;5044702;28;20382;-63
2023/11/12 01:02:28;;;;;;;13.40;6.85;;;3.10;99.90;;;;;;5039793;28;20029;-61
2023/11/12 01:04:54;;;;;;;15.32;7.10;;;3.00;99.90;;;;;;5046538;28;20095;-62
2023/11/12 01:07:19;;;;;;;13.18;7.22;;;2.90;99.90;;;;;;5030218;28;20106;-63
2023/11/12 01:09:46;;;;;;;13.32;6.88;;;2.80;99.90;;;;;;5038824;28;20420;-63
2023/11/12 01:12:11;;;;;;;18.98;6.90;;;2.70;99.90;;;;;;5035918;28;20510;-62
2023/11/12 01:14:37;;;;;;;14.18;6.75;;;2.80;99.90;;;;;;5037267;28;20029;-63
2023/11/12 01:17:05;;;;;;;9.90;7.03;;;2.90;99.90;;;;;;5033107;28;20101;-63
2023/11/12 01:19:31;;;;;;;12.20;7.10;;;2.90;99.90;;;;;;5037116;28;20478;-62
2023/11/12 01:21:57;;;;;;;17.63;7.82;;;2.90;99.90;;;;;;5039832;28;20250;-61
2023/11/12 01:24:25;;;;;;;14.88;7.82;;;2.90;99.90;;;;;;5035846;28;20035;-62
2023/11/12 01:26:51;;;;;;;14.32;7.43;;;2.90;99.90;;;;;;5035564;28;21185;-63
2023/11/12 01:29:17;;;;;;;13.68;7.28;;;3.00;99.90;;;;;;5038788;28;20028;-63
2023/11/12 01:31:45;;;;;;;13.30;6.97;;;2.90;99.90;;;;;;5033489;28;20570;-62
2023/11/12 01:34:11;;;;;;;14.20;8.07;;;3.00;99.90;;;;;;5033359;28;20038;-62
2023/11/12 01:36:37;;;;;;;15.45;8.43;;;3.00;99.90;;;;;;5032675;28;20561;-63
2023/11/12 01:39:03;;;;;;;16.00;7.32;;;3.00;99.90;;;;;;5035428;28;20053;-63
2023/11/12 01:41:29;;;;;;;19.33;8.00;;;3.10;99.90;;;;;;5033734;28;20036;-63
2023/11/12 01:43:54;;;;;;;11.45;7.88;;;3.10;99.90;;;;;;5036443;28;20498;-61
2023/11/12 01:46:20;;;;;;;18.30;8.45;;;3.10;99.90;;;;;;5033594;28;20032;-59
2023/11/12 01:48:47;;;;;;;15.88;7.82;;;3.00;99.90;;;;;;5037557;28;20104;-62
2023/11/12 01:51:12;;;;;;;19.00;8.30;;;3.10;99.90;;;;;;5036382;28;20033;-62
2023/11/12 01:53:40;;;;;;;16.70;7.40;;;3.10;99.90;;;;;;5034509;28;20034;-62
2023/11/12 01:56:10;;;;;;;13.48;7.88;;;3.10;99.90;;;;;;5035445;28;20032;-61
2023/11/12 01:58:37;;;;;;;14.65;7.80;;;3.10;99.90;;;;;;5033964;28;20385;-63
2023/11/12 02:01:03;;;;;;;19.05;7.63;;;3.00;99.90;;;;;;5030982;28;20025;-63
2023/11/12 02:03:30;;;;;;;12.80;7.45;;;2.90;99.90;;;;;;5029507;28;20698;-63
2023/11/12 02:05:56;;;;;;;12.73;7.50;;;2.80;99.90;;;;;;5032394;28;20472;-63
2023/11/12 02:08:22;;;;;;;12.93;7.63;;;2.70;99.90;;;;;;5037776;28;20094;-62
2023/11/12 02:10:49;;;;;;;16.17;8.07;;;2.70;99.90;;;;;;5039856;28;20097;-63
2023/11/12 02:13:16;;;;;;;17.48;8.32;;;2.70;99.90;;;;;;5032106;28;20487;-63
2023/11/12 02:15:46;;;;;;;18.08;9.25;;;2.80;99.90;;;;;;5037164;28;21685;-62
2023/11/12 02:18:11;;;;;;;15.73;8.82;;;2.90;99.90;;;;;;5032551;28;20442;-62
2023/11/12 02:20:44;;;;;;;18.13;8.05;;;2.90;99.90;;;;;;5036726;28;20146;-63
2023/11/12 02:23:10;;;;;;;20.40;9.45;;;2.70;99.90;;;;;;5034739;28;20154;-63
2023/11/12 02:25:36;;;;;;;20.33;8.52;;;2.60;99.90;;;;;;5038141;28;20615;-63
2023/11/12 02:28:03;;;;;;;26.08;7.63;;;2.60;99.90;;;;;;5036739;28;20016;-63
2023/11/12 02:30:28;;;;;;;14.82;8.30;;;2.60;99.90;;;;;;5039248;28;20022;-63
2023/11/12 02:32:54;;;;;;;19.75;9.18;;;2.60;99.90;;;;;;5040746;28;20245;-63
2023/11/12 02:35:19;;;;;;;17.58;9.32;;;2.70;99.90;;;;;;5042869;28;20052;-61
2023/11/12 02:37:45;;;;;;;19.40;8.85;;;2.70;99.90;;;;;;5041212;28;20048;-63
2023/11/12 02:40:12;;;;;;;17.48;9.48;;;2.70;99.90;;;;;;5040540;28;20033;-63
2023/11/12 02:42:38;;;;;;;19.58;9.75;;;2.70;99.90;;;;;;5034553;28;20032;-63
2023/11/12 02:45:05;;;;;;;17.42;9.77;;;2.70;99.90;;;;;;5043284;28;20160;-63
2023/11/12 02:47:30;;;;;;;18.70;10.55;;;2.70;99.90;;;;;;5035231;28;20104;-63
2023/11/12 02:50:05;;;;;;;23.23;10.45;;;2.60;99.90;;;;;;5042602;28;20100;-63
2023/11/12 02:52:32;;;;;;;22.13;9.85;;;2.60;99.90;;;;;;5040984;28;20387;-63
2023/11/12 02:54:58;;;;;;;17.88;9.98;;;2.50;99.90;;;;;;5040334;28;20025;-63
2023/11/12 02:57:24;;;;;;;23.27;10.07;;;2.50;99.90;;;;;;5037109;28;20039;-61
2023/11/12 02:59:50;;;;;;;22.63;11.85;;;2.60;99.90;;;;;;5037794;28;20025;-63
2023/11/12 03:02:16;;;;;;;20.92;10.80;;;2.70;99.90;;;;;;5034593;28;20437;-61
2023/11/12 03:04:41;;;;;;;27.25;11.98;;;2.80;99.90;;;;;;5039134;28;20547;-63
2023/11/12 03:07:07;;;;;;;23.30;12.35;;;2.90;99.90;;;;;;5038449;28;20036;-63
2023/11/12 03:09:33;;;;;;;25.67;12.25;;;2.90;99.90;;;;;;5036742;28;20123;-63
2023/11/12 03:11:58;;;;;;;23.70;10.70;;;3.00;99.90;;;;;;5045853;28;20035;-62
2023/11/12 03:14:24;;;;;;;21.42;10.23;;;3.10;99.90;;;;;;5037837;28;20040;-62
2023/11/12 03:16:49;;;;;;;26.67;10.65;;;3.10;99.90;;;;;;5034380;28;20620;-62
2023/11/12 03:19:15;;;;;;;26.92;10.55;;;3.10;99.90;;;;;;5038108;28;20037;-62
2023/11/12 03:21:41;;;;;;;19.55;10.77;;;3.20;99.90;;;;;;5037187;28;20045;-62
2023/11/12 03:24:10;;;;;;;24.38;11.35;;;3.20;99.90;;;;;;5036476;28;20072;-61
2023/11/12 03:26:36;;;;;;;27.30;10.45;;;3.20;99.90;;;;;;5038574;28;20499;-62
2023/11/12 03:29:03;;;;;;;24.27;10.70;;;3.30;99.90;;;;;;5035005;28;20033;-61
2023/11/12 03:31:29;;;;;;;22.38;9.55;;;3.30;99.90;;;;;;5040568;28;20029;-62
2023/11/12 03:33:55;;;;;;;23.45;9.48;;;3.30;99.90;;;;;;5039659;28;20582;-62
2023/11/12 03:36:21;;;;;;;22.20;9.32;;;3.30;99.90;;;;;;5040207;28;20041;-59
2023/11/12 03:38:46;;;;;;;19.10;8.88;;;3.40;99.90;;;;;;5038631;28;20020;-63
2023/11/12 03:41:12;;;;;;;17.95;8.75;;;3.40;99.90;;;;;;5040955;28;20040;-63
2023/11/12 03:43:38;;;;;;;21.80;9.05;;;3.30;99.90;;;;;;5036171;28;20072;-62
2023/11/12 03:46:06;;;;;;;19.77;9.45;;;3.30;99.90;;;;;;5040019;28;20063;-63
2023/11/12 03:48:32;;;;;;;19.05;9.13;;;3.30;99.90;;;;;;5034369;28;20072;-62
2023/11/12 03:50:58;;;;;;;16.15;8.55;;;3.30;99.90;;;;;;5044515;28;20025;-62
2023/11/12 03:53:23;;;;;;;19.52;9.38;;;3.30;99.90;;;;;;5032846;28;20029;-62
2023/11/12 03:55:49;;;;;;;17.13;9.02;;;3.30;99.90;;;;;;5041432;28;20087;-62
2023/11/12 03:58:14;;;;;;;15.85;8.10;;;3.30;99.90;;;;;;5033032;28;20029;-63
2023/11/12 04:00:40;;;;;;;17.88;8.27;;;3.30;99.90;;;;;;5039916;28;20029;-63
2023/11/12 04:03:06;;;;;;;15.02;7.68;;;3.40;99.90;;;;;;5037546;28;20116;-63
2023/11/12 04:05:32;;;;;;;18.85;8.75;;;3.40;99.90;;;;;;5036746;28;20021;-62
2023/11/12 04:07:58;;;;;;;14.57;8.48;;;3.40;99.90;;;;;;5041154;28;20111;-62
2023/11/12 04:10:23;;;;;;;15.07;7.78;;;3.50;99.90;;;;;;5038122;28;20782;-62
2023/11/12 04:12:49;;;;;;;10.70;6.90;;;3.50;99.90;;;;;;5040451;28;20041;-63
2023/11/12 04:15:15;;;;;;;13.90;6.70;;;3.50;99.90;;;;;;5040491;28;20029;-63
2023/11/12 04:17:40;;;;;;;11.82;7.07;;;3.60;99.90;;;;;;5036362;28;20041;-62
2023/11/12 04:20:08;;;;;;;17.70;7.00;;;3.70;99.90;;;;;;5042514;28;20033;-63
2023/11/12 04:22:34;;;;;;;16.60;8.00;;;3.70;99.90;;;;;;5034658;28;20045;-62
2023/11/12 04:24:59;;;;;;;13.43;7.28;;;3.70;99.90;;;;;;5039789;28;20029;-62
2023/11/12 04:27:25;;;;;;;11.93;6.75;;;3.60;99.90;;;;;;5033079;28;20034;-62
2023/11/12 04:29:51;;;;;;;11.25;6.60;;;3.60;99.90;;;;;;5040029;28;20500;-63
2023/11/12 04:32:16;;;;;;;9.63;6.07;;;3.60;99.90;;;;;;5039303;28;20029;-63
2023/11/12 04:34:43;;;;;;;16.73;6.97;;;3.60;99.90;;;;;;5037820;28;20082;-63
2023/11/12 04:37:09;;;;;;;12.38;6.20;;;3.60;99.90;;;;;;5037238;28;20064;-61
2023/11/12 04:39:35;;;;;;;12.75;6.25;;;3.60;99.90;;;;;;5031869;28;20033;-62
2023/11/12 04:42:00;;;;;;;14.60;6.00;;;3.60;99.90;;;;;;5037811;28;20028;-63
2023/11/12 04:44:26;;;;;;;12.77;6.60;;;3.60;99.90;;;;;;5036463;28;20075;-62
2023/11/12 04:46:52;;;;;;;9.10;5.65;;;3.60;99.90;;;;;;5037467;28;20067;-62
2023/11/12 04:49:17;;;;;;;9.43;5.10;;;3.60;99.90;;;;;;5038642;28;20059;-62
2023/11/12 04:51:43;;;;;;;11.13;5.93;;;3.60;99.90;;;;;;5034981;28;20034;-62
2023/11/12 04:54:09;;;;;;;9.73;5.72;;;3.60;99.90;;;;;;5037649;28;20029;-61
2023/11/12 04:56:34;;;;;;;12.10;5.97;;;3.60;99.90;;;;;;5034044;28;20029;-61
2023/11/12 04:59:00;;;;;;;14.82;6.88;;;3.50;99.90;;;;;;5037281;28;20486;-62
2023/11/12 05:01:26;;;;;;;13.38;6.35;;;3.50;99.90;;;;;;5035132;28;20037;-60
2023/11/12 05:03:52;;;;;;;14.73;6.68;;;3.50;99.90;;;;;;5038390;28;20028;-62
2023/11/12 05:06:17;;;;;;;12.52;6.57;;;3.40;99.90;;;;;;5036364;28;20029;-62
2023/11/12 05:08:43;;;;;;;13.00;6.88;;;3.50;99.90;;;;;;5036743;28;20033;-62
2023/11/12 05:11:09;;;;;;;12.27;5.65;;;3.40;99.90;;;;;;5038061;28;20025;-63
2023/11/12 05:13:37;;;;;;;9.68;5.40;;;3.30;99.90;;;;;;5037448;28;20438;-63
2023/11/12 05:16:03;;;;;;;12.20;5.50;;;3.20;99.90;;;;;;5029659;28;20069;-63
2023/11/12 05:18:29;;;;;;;9.95;5.68;;;3.00;99.90;;;;;;5037142;28;20037;-61
2023/11/12 05:20:55;;;;;;;13.88;5.25;;;3.10;99.90;;;;;;5038456;28;20030;-62
2023/11/12 05:23:21;;;;;;;10.98;5.07;;;3.10;99.90;;;;;;5035906;28;20033;-61
2023/11/12 05:25:46;;;;;;;11.20;6.18;;;3.00;99.90;;;;;;5034625;28;20080;-62
2023/11/12 05:28:12;;;;;;;14.73;5.95;;;3.10;99.90;;;;;;5039871;28;20048;-62
2023/11/12 05:30:38;;;;;;;7.93;5.38;;;3.20;99.90;;;;;;5033594;28;20116;-62
2023/11/12 05:33:04;;;;;;;9.27;5.43;;;3.10;99.90;;;;;;5035295;28;20032;-62
2023/11/12 05:35:30;;;;;;;12.63;5.68;;;3.00;99.90;;;;;;5036415;28;20024;-61
2023/11/12 05:37:55;;;;;;;11.07;5.30;;;3.00;99.90;;;;;;5035355;28;20536;-60
2023/11/12 05:40:21;;;;;;;12.05;5.35;;;2.90;99.90;;;;;;5032524;28;20037;-61
2023/11/12 05:42:47;;;;;;;9.88;5.63;;;2.90;99.90;;;;;;5036972;28;20048;-60
2023/11/12 05:45:13;;;;;;;9.27;5.13;;;2.90;99.90;;;;;;5033861;28;20029;-62
2023/11/12 05:47:39;;;;;;;13.13;5.28;;;2.80;99.90;;;;;;5034066;28;20141;-62
2023/11/12 05:50:06;;;;;;;14.75;5.95;;;2.80;99.90;;;;;;5041746;28;20504;-63
2023/11/12 05:52:31;;;;;;;12.45;5.10;;;2.90;99.90;;;;;;5038424;28;20045;-62
2023/11/12 05:54:57;;;;;;;13.48;6.55;;;2.90;99.90;;;;;;5032539;28;20093;-62
2023/11/12 05:57:22;;;;;;;13.57;6.25;;;2.80;99.90;;;;;;5030793;28;20105;-62
2023/11/12 05:59:48;;;;;;;14.88;5.47;;;2.70;99.90;;;;;;5032458;28;20041;-62
2023/11/12 06:02:14;;;;;;;9.18;5.93;;;2.70;99.90;;;;;;5032578;28;20167;-61
2023/11/12 06:04:39;;;;;;;11.88;5.85;;;2.70;99.90;;;;;;5031951;28;20030;-62
2023/11/12 06:07:05;;;;;;;12.18;5.80;;;2.60;99.90;;;;;;5039901;28;20447;-62
2023/11/12 06:09:31;;;;;;;6.95;5.15;;;2.60;99.90;;;;;;5032819;28;20009;-62
2023/11/12 06:11:57;;;;;;;12.07;5.53;;;2.60;99.90;;;;;;5038458;28;20037;-63
2023/11/12 06:14:22;;;;;;;10.05;5.28;;;2.50;99.90;;;;;;5032530;28;20045;-62
2023/11/12 06:16:48;;;;;;;12.82;5.57;;;2.50;99.90;;;;;;5034068;28;20453;-62
2023/11/12 06:19:13;;;;;;;13.27;5.38;;;2.30;99.90;;;;;;5034774;28;20025;-62
2023/11/12 06:21:39;;;;;;;11.95;5.70;;;2.20;99.90;;;;;;5037324;28;20040;-62
2023/11/12 06:24:06;;;;;;;8.63;5.60;;;2.20;99.90;;;;;;5034813;28;20124;-62
2023/11/12 06:26:32;;;;;;;9.63;6.10;;;2.10;99.90;;;;;;5036501;28;20386;-62
2023/11/12 06:28:58;;;;;;;10.77;6.15;;;2.10;99.90;;;;;;5038550;28;20392;-62
2023/11/12 06:31:24;;;;;;;10.07;6.10;;;2.10;99.90;;;;;;5036952;28;20048;-62
2023/11/12 06:33:49;;;;;;;14.55;5.72;;;2.10;99.90;;;;;;5036234;28;20041;-62
2023/11/12 06:36:16;;;;;;;13.25;6.82;;;2.10;99.90;;;;;;5037088;28;20029;-60
2023/11/12 06:38:41;;;;;;;12.02;5.63;;;2.00;99.90;;;;;;5038083;28;20419;-62
2023/11/12 06:41:09;;;;;;;10.95;5.70;;;2.00;99.90;;;;;;5032907;28;20037;-62
2023/11/12 06:43:35;;;;;;;10.65;6.10;;;2.00;99.90;;;;;;5034275;28;20036;-61
2023/11/12 06:46:00;;;;;;;12.77;6.18;;;2.00;99.90;;;;;;5038426;28;20012;-62
2023/11/12 06:48:26;;;;;;;14.30;6.18;;;2.00;99.90;;;;;;5038576;28;20028;-62
2023/11/12 06:50:51;;;;;;;12.25;6.57;;;2.00;99.90;;;;;;5040011;28;20022;-63
2023/11/12 06:53:17;;;;;;;16.08;6.78;;;2.00;99.90;;;;;;5038577;28;20505;-62
2023/11/12 06:55:43;;;;;;;11.48;6.13;;;2.10;99.90;;;;;;5034339;28;20033;-61
2023/11/12 06:58:09;;;;;;;14.70;7.18;;;2.10;99.90;;;;;;5039544;28;20021;-62
2023/11/12 07:00:34;;;;;;;14.77;7.10;;;2.00;99.90;;;;;;5038931;28;20499;-62
2023/11/12 07:03:00;;;;;;;12.45;6.13;;;2.00;99.90;;;;;;5040100;28;20391;-61
2023/11/12 07:05:26;;;;;;;13.05;6.57;;;2.10;99.90;;;;;;5033706;28;20392;-62
2023/11/12 07:07:52;;;;;;;14.13;6.93;;;2.10;99.90;;;;;;5036898;28;20025;-62
2023/11/12 07:10:18;;;;;;;14.50;7.25;;;2.10;99.90;;;;;;5033353;28;20492;-60
2023/11/12 07:12:44;;;;;;;12.30;6.25;;;2.20;99.90;;;;;;5040000;28;20017;-61
2023/11/12 07:15:10;;;;;;;16.13;7.07;;;2.30;99.90;;;;;;5035014;28;20049;-60
2023/11/12 07:17:36;;;;;;;12.32;6.65;;;2.30;99.90;;;;;;5041875;28;20021;-62
2023/11/12 07:20:02;;;;;;;11.63;6.55;;;2.30;99.90;;;;;;5037358;28;20030;-62
2023/11/12 07:22:28;;;;;;;17.48;7.72;;;2.30;99.90;;;;;;5043198;28;20685;-63
2023/11/12 07:24:55;;;;;;;16.45;7.43;;;2.20;99.90;;;;;;5035178;28;20021;-62
2023/11/12 07:27:21;;;;;;;16.08;6.38;;;2.20;99.90;;;;;;5038693;28;20451;-62
2023/11/12 07:29:46;;;;;;;12.80;6.85;;;2.20;99.90;;;;;;5040411;28;20041;-62
2023/11/12 07:32:12;;;;;;;16.05;6.72;;;2.20;99.90;;;;;;5040908;28;20039;-62
2023/11/12 07:34:37;;;;;;;11.43;6.90;;;2.10;99.90;;;;;;5044527;28;20021;-60
2023/11/12 07:37:04;;;;;;;11.23;6.32;;;2.20;99.90;;;;;;5034782;28;20038;-62
2023/11/12 07:39:29;;;;;;;11.65;6.45;;;2.10;99.90;;;;;;5035728;28;20771;-62
2023/11/12 07:41:55;;;;;;;12.88;6.30;;;2.10;99.90;;;;;;5036644;28;20083;-62
2023/11/12 07:44:21;;;;;;;14.40;6.47;;;2.20;99.90;;;;;;5037939;28;20037;-62
2023/11/12 07:46:46;;;;;;;16.88;7.32;;;2.30;99.90;;;;;;5041016;28;20060;-62
2023/11/12 07:49:12;;;;;;;14.10;6.55;;;2.40;99.90;;;;;;5038823;28;20448;-61
2023/11/12 07:51:38;;;;;;;13.30;7.60;;;2.40;99.90;;;;;;5045381;28;20510;-63
2023/11/12 07:54:04;;;;;;;15.98;7.22;;;2.50;99.90;;;;;;5036644;28;20043;-61
2023/11/12 07:56:30;;;;;;;11.63;6.78;;;2.60;99.90;;;;;;5037973;28;20064;-63
2023/11/12 07:58:56;;;;;;;13.45;6.93;;;2.70;99.90;;;;;;5036857;28;20028;-62
2023/11/12 08:01:21;;;;;;;19.75;7.88;;;2.80;99.90;;;;;;5034688;28;20033;-63
2023/11/12 08:03:47;;;;;;;18.25;7.80;;;2.90;99.90;;;;;;5039037;28;20108;-62
2023/11/12 08:06:15;;;;;;;13.15;8.18;;;3.00;99.90;;;;;;5036033;28;20033;-62
2023/11/12 08:08:40;;;;;;;13.63;7.72;;;3.10;99.90;;;;;;5040640;28;20025;-60
2023/11/12 08:11:06;;;;;;;13.05;7.53;;;3.10;99.90;;;;;;5044549;28;20052;-62
2023/11/12 08:13:31;;;;;;;17.88;9.18;;;3.20;99.90;;;;;;5042429;28;20032;-62
2023/11/12 08:15:57;;;;;;;15.98;7.43;;;3.30;99.90;;;;;;5040551;28;20037;-62
2023/11/12 08:18:23;;;;;;;18.45;8.85;;;3.30;99.90;;;;;;5029709;28;20406;-62
2023/11/12 08:20:49;;;;;;;17.92;8.60;;;3.40;99.90;;;;;;5038212;28;20036;-61
2023/11/12 08:23:14;;;;;;;16.85;9.60;;;3.50;99.90;;;;;;5038733;28;20033;-61
2023/11/12 08:25:40;;;;;;;17.75;10.43;;;3.60;99.90;;;;;;5011174;28;20356;-62
2023/11/12 08:28:05;;;;;;;32.90;10.60;;;3.80;99.90;;;;;;5039976;28;20194;-62
2023/11/12 08:30:31;;;;;;;20.27;11.15;;;3.90;99.90;;;;;;5038480;28;20033;-61
2023/11/12 08:32:57;;;;;;;25.73;11.10;;;4.00;99.90;;;;;;5038854;28;20034;-61
2023/11/12 08:35:24;;;;;;;29.10;11.52;;;4.20;99.90;;;;;;5037898;28;20037;-63
2023/11/12 08:37:49;;;;;;;19.08;11.13;;;4.30;99.90;;;;;;5036284;28;20017;-62
2023/11/12 08:40:15;;;;;;;23.30;12.90;;;4.40;99.90;;;;;;5042786;28;20047;-62
2023/11/12 08:42:41;;;;;;;30.60;12.25;;;4.50;99.90;;;;;;5037128;28;20049;-62
2023/11/12 08:45:07;;;;;;;22.63;13.45;;;4.60;99.90;;;;;;5043892;28;20029;-62
2023/11/12 08:47:32;;;;;;;25.20;12.90;;;4.70;99.90;;;;;;5041644;28;20108;-63
2023/11/12 08:49:59;;;;;;;31.23;12.43;;;4.80;99.90;;;;;;5033432;28;20024;-62
2023/11/12 08:52:25;;;;;;;22.00;12.18;;;4.90;99.90;;;;;;5030814;28;20488;-61
2023/11/12 08:54:53;;;;;;;24.88;13.18;;;5.00;99.90;;;;;;5039407;28;20102;-61
2023/11/12 08:57:19;;;;;;;24.42;12.20;;;5.10;99.90;;;;;;5032096;28;20096;-61
2023/11/12 08:59:44;;;;;;;26.92;13.57;;;5.20;99.90;;;;;;5030162;28;20037;-61
2023/11/12 09:02:11;;;;;;;24.90;13.43;;;5.30;99.90;;;;;;5034337;28;20044;-62
2023/11/12 09:04:38;;;;;;;30.77;13.68;;;5.40;99.90;;;;;;5040405;28;20107;-60
2023/11/12 09:07:04;;;;;;;25.38;12.23;;;5.40;99.90;;;;;;5038314;28;20021;-62
2023/11/12 09:09:29;;;;;;;25.23;14.02;;;5.50;99.90;;;;;;5021375;28;20017;-68
2023/11/12 09:11:56;;;;;;;28.40;13.40;;;5.60;99.90;;;;;;5035974;28;20039;-67
2023/11/12 09:14:22;;;;;;;25.98;13.23;;;5.70;99.90;;;;;;5037743;28;20495;-67
2023/11/12 09:16:48;;;;;;;29.75;12.93;;;5.80;99.90;;;;;;5029387;28;20083;-67
2023/11/12 09:19:13;;;;;;;28.40;12.30;;;5.90;99.90;;;;;;5033615;28;20037;-68
2023/11/12 09:21:39;;;;;;;24.35;10.93;;;6.00;99.90;;;;;;5037517;28;20033;-67
2023/11/12 09:24:05;;;;;;;23.55;12.90;;;6.10;99.90;;;;;;5036738;28;20057;-67
2023/11/12 09:26:31;;;;;;;21.42;12.00;;;6.20;99.90;;;;;;5031229;28;20022;-67
2023/11/12 09:28:56;;;;;;;21.10;12.35;;;6.20;99.90;;;;;;5037083;28;20033;-67
2023/11/12 09:31:22;;;;;;;22.23;11.63;;;6.30;99.90;;;;;;5040636;28;20032;-67
2023/11/12 09:33:49;;;;;;;24.02;11.55;;;6.40;99.90;;;;;;5036688;28;20052;-66
2023/11/12 09:36:15;;;;;;;24.45;12.32;;;6.60;99.90;;;;;;5044728;28;20479;-67
2023/11/12 09:38:41;;;;;;;23.38;11.63;;;6.60;99.90;;;;;;5037627;28;20029;-67
2023/11/12 09:41:09;;;;;;;22.63;11.52;;;6.60;99.90;;;;;;5038184;28;20025;-67
2023/11/12 09:43:35;;;;;;;24.50;11.43;;;6.70;99.90;;;;;;5042674;28;20033;-67
2023/11/12 09:46:06;;;;;;;25.38;12.38;;;6.70;99.90;;;;;;5031874;28;20027;-67
2023/11/12 09:48:42;;;;;;;25.92;12.27;;;6.70;99.90;;;;;;5042380;28;20138;-67
2023/11/12 09:51:12;;;;;;;16.13;10.05;;;6.80;99.90;;;;;;5046390;28;20498;-67
2023/11/12 09:53:41;;;;;;;20.90;9.98;;;6.80;99.90;;;;;;5039209;28;20037;-67
2023/11/12 09:56:08;;;;;;;20.17;10.43;;;6.90;99.90;;;;;;5045430;28;20033;-67
2023/11/12 09:58:36;;;;;;;18.20;10.65;;;7.00;99.90;;;;;;5039918;28;20048;-67
2023/11/12 10:01:03;;;;;;;16.98;10.65;;;7.10;99.90;;;;;;5040035;28;20509;-67
2023/11/12 10:03:28;;;;;;;19.10;10.20;;;7.20;99.90;;;;;;5029770;28;20067;-67
2023/11/12 10:05:54;;;;;;;21.67;9.80;;;7.30;99.90;;;;;;5038383;28;20487;-67
2023/11/12 10:08:22;;;;;;;37.53;11.95;;;7.40;99.90;;;;;;5038566;28;20106;-67
2023/11/12 10:10:47;;;;;;;18.95;9.60;;;7.50;99.90;;;;;;5037679;28;20021;-67
2023/11/12 10:13:13;;;;;;;23.48;9.82;;;7.60;99.90;;;;;;5040386;28;20033;-67
2023/11/12 10:15:39;;;;;;;18.38;8.80;;;7.70;99.90;;;;;;5034319;28;20057;-66
2023/11/12 10:18:06;;;;;;;17.17;9.27;;;7.80;99.90;;;;;;5043089;28;20037;-66
2023/11/12 10:20:39;;;;;;;18.50;9.00;;;7.90;99.90;;;;;;5045532;28;20032;-67
2023/11/12 10:23:05;;;;;;;14.75;7.70;;;8.00;99.90;;;;;;5041433;28;20029;-67
2023/11/12 10:25:47;;;;;;;12.48;7.90;;;8.10;99.90;;;;;;5038933;28;20025;-66
2023/11/12 10:28:13;;;;;;;11.95;6.68;;;8.20;99.90;;;;;;5028628;28;20029;-66
2023/11/12 10:30:43;;;;;;;12.55;6.68;;;8.30;99.90;;;;;;5039046;28;20053;-67
2023/11/12 10:33:28;;;;;;;16.02;7.05;;;8.40;99.90;;;;;;5042771;28;20038;-66
2023/11/12 10:35:55;;;;;;;21.75;7.03;;;8.50;99.90;;;;;;5042079;28;20064;-66
2023/11/12 10:38:22;;;;;;;14.50;6.72;;;8.60;99.90;;;;;;5045700;28;20119;-66
2023/11/12 10:41:05;;;;;;;10.93;7.05;;;8.70;99.90;;;;;;5044843;28;20028;-66
2023/11/12 10:43:32;;;;;;;11.88;6.80;;;8.80;99.90;;;;;;5037370;28;20090;-66
2023/11/12 10:46:03;;;;;;;12.93;6.68;;;8.80;99.90;;;;;;5044377;28;20083;-66
2023/11/12 10:48:38;;;;;;;10.73;6.43;;;8.90;99.90;;;;;;5042197;28;20112;-67
2023/11/12 10:51:06;;;;;;;11.07;6.00;;;8.90;99.90;;;;;;5039805;28;20375;-67
2023/11/12 10:53:33;;;;;;;12.75;6.32;;;9.10;99.90;;;;;;5038768;28;20034;-67
2023/11/12 10:56:00;;;;;;;18.73;6.47;;;9.00;99.90;;;;;;5042811;28;20127;-67
2023/11/12 10:58:28;;;;;;;8.93;5.38;;;9.00;99.90;;;;;;5036426;28;20029;-67
2023/11/12 11:00:57;;;;;;;10.52;6.03;;;9.00;99.90;;;;;;5038242;28;20033;-67
2023/11/12 11:03:26;;;;;;;13.52;5.32;;;9.00;99.90;;;;;;5038018;28;20021;-66
2023/11/12 11:05:53;;;;;;;12.13;5.72;;;9.20;99.90;;;;;;5036729;28;20032;-67
2023/11/12 11:08:19;;;;;;;15.40;6.10;;;9.30;99.90;;;;;;5045309;28;20048;-66
2023/11/12 11:10:45;;;;;;;12.38;5.80;;;9.30;99.90;;;;;;5042342;28;20048;-67
2023/11/12 11:13:11;;;;;;;14.48;5.50;;;9.30;99.90;;;;;;5040102;28;20033;-66
2023/11/12 11:15:52;;;;;;;12.43;5.60;;;9.30;99.90;;;;;;5041104;28;20067;-67
2023/11/12 11:18:33;;;;;;;20.23;5.70;;;9.40;99.90;;;;;;5041174;28;20029;-67
2023/11/12 11:21:15;;;;;;;12.63;5.80;;;9.50;99.90;;;;;;5040365;28;20025;-66
2023/11/12 11:23:47;;;;;;;8.77;4.85;;;9.70;99.90;;;;;;5042511;28;20114;-66
2023/11/12 11:26:27;;;;;;;11.70;5.32;;;9.90;99.90;;;;;;5032817;28;20095;-66
2023/11/12 11:29:05;;;;;;;8.95;4.50;;;10.10;99.90;;;;;;5040802;28;20392;-67
2023/11/12 11:31:37;;;;;;;14.45;4.82;;;10.10;99.90;;;;;;5038416;28;20435;-67
2023/11/12 11:34:04;;;;;;;14.00;4.47;;;9.90;99.90;;;;;;5033776;28;20769;-67
2023/11/12 11:36:30;;;;;;;15.43;4.65;;;9.90;99.90;;;;;;5034543;28;20033;-66
2023/11/12 11:39:12;;;;;;;16.52;5.13;;;9.80;99.90;;;;;;5035926;28;20041;-67
2023/11/12 11:41:56;;;;;;;15.13;4.93;;;9.70;99.90;;;;;;5035957;28;20032;-67
2023/11/12 11:44:44;;;;;;;12.82;4.47;;;9.80;99.90;;;;;;5038816;28;20160;-67
2023/11/12 11:47:28;;;;;;;12.43;4.88;;;9.70;99.90;;;;;;5039081;28;20032;-66
2023/11/12 11:49:56;;;;;;;9.57;4.33;;;9.90;99.90;;;;;;5038296;28;20043;-67
2023/11/12 11:52:29;;;;;;;16.92;5.00;;;10.10;99.90;;;;;;5041120;28;20635;-66
2023/11/12 11:55:05;;;;;;;12.07;4.53;;;10.50;99.90;;;;;;5042091;28;20028;-67
2023/11/12 11:57:31;;;;;;;13.35;3.90;;;11.10;99.90;;;;;;5042883;28;20029;-67
2023/11/12 11:59:58;;;;;;;16.45;4.75;;;11.40;99.90;;;;;;5041491;28;20017;-67
2023/11/12 12:02:24;;;;;;;20.60;4.53;;;11.80;99.90;;;;;;5042503;28;20025;-67
2023/11/12 12:04:52;;;;;;;10.13;3.38;;;11.90;99.90;;;;;;5037902;28;20422;-66
2023/11/12 12:07:31;;;;;;;6.90;3.70;;;12.20;99.90;;;;;;5036478;28;20057;-65
2023/11/12 12:09:59;;;;;;;13.73;3.67;;;12.30;99.90;;;;;;5034784;28;20052;-67
2023/11/12 12:12:24;;;;;;;8.00;2.83;;;12.50;99.90;;;;;;5037764;28;20033;-67
2023/11/12 12:14:50;;;;;;;10.82;2.88;;;12.30;99.90;;;;;;5039434;28;20025;-67
2023/11/12 12:17:16;;;;;;;5.93;2.78;;;12.10;99.90;;;;;;5036904;28;20029;-67
2023/11/12 12:19:42;;;;;;;10.18;2.30;;;11.80;99.90;;;;;;5038813;28;20059;-67
2023/11/12 12:22:08;;;;;;;6.40;1.85;;;11.50;99.90;;;;;;5043591;28;20029;-67
2023/11/12 12:24:34;;;;;;;5.45;2.17;;;11.20;99.90;;;;;;5043997;28;20021;-66
2023/11/12 12:27:12;;;;;;;8.10;2.20;;;11.70;99.90;;;;;;5036987;28;20373;-66
2023/11/12 12:29:39;;;;;;;6.68;3.20;;;12.20;99.90;;;;;;5042376;28;20025;-62
2023/11/12 12:32:19;;;;;;;6.50;2.28;;;12.30;99.90;;;;;;5041993;28;20029;-61
2023/11/12 12:34:59;;;;;;;10.02;2.50;;;12.20;99.90;;;;;;5039076;28;20072;-62
2023/11/12 12:37:27;;;;;;;10.45;2.72;;;11.70;99.90;;;;;;5036763;28;20111;-62
2023/11/12 12:40:03;;;;;;;10.38;2.20;;;11.50;99.90;;;;;;5035209;28;20025;-60
2023/11/12 12:42:30;;;;;;;7.82;2.30;;;11.30;99.90;;;;;;5040953;28;20021;-63
2023/11/12 12:44:59;;;;;;;6.03;1.90;;;11.20;99.90;;;;;;5033924;28;20021;-63